Aérodrome :
LOGIN :

S'inscrire | Disclaimer

   EN    FR    IT 

 










Légende :    VFR   VFR Marginal   IFR   IFR Intensif   IFR Très Intensif
Visi : 
Plafond : 
>= 8 km
>= 3000ft
5 à 8 km
1000 à 3000 ft
1500m à 5 km
500 à 1000 ft
800 à 1500m
200 à 500 ft
< 800m
< 200 ft
Symboles :   Orages  Brouillard  Fortes neiges  Fortes précipitations  Vent > 20 kt
SIGMETs :   Divers  Orages  Givrage  Turbulence  Onde Orograph.  Cendres Volcan.






- Altitude de l'aérodrome : 374 ft
- Code IATA : LIS


LPPT - Lisboa Portela

DERNIER METAR :
  • 171200Z 28007KT 230V340 9999 VCSH SCT010 SCT025 16/14 Q1018

METARs EXPIRÉS :
  • 171130Z 27007KT 230V310 8000 -RADZ FEW006 BKN010 15/15 Q1018 RERADZ
  • 171100Z 29006KT 250V310 9999 VCSH FEW008 BKN010 15/14 Q1018
  • 171030Z 27008KT 240V310 9999 -DZRA FEW008 BKN010 15/14 Q1018
  • 171000Z 28006KT 240V320 8000 -RADZ SCT008 BKN010 15/14 Q1018
  • 170930Z 25010KT 7000 -RADZ FEW008 BKN010 15/14 Q1018 RERA

TAF TAF LPPT
Valide du 17 à 12h jusqu'au 18 à 18h UTC


171100Z 1712/1818 29010KT 9999 SCT012 BKN030
TEMPO 1712/1720 5000 RADZ BR SCT004 BKN008
BECMG 1716/1718 34010KT
BECMG 1720/1723 FEW025
BECMG 1810/1812 36012KT CAVOK



MET'MAP, la Météo Aéronautique d'un coup d'oeil ! - Copyright ORBIFLY Décembre 2007 - Disclaimer

ORBIFLY MET'MAP TEAM :

Programmation & Développement : Alexandra Zaïnal
Conception & Développement : Baudouin d'Aumeries
Co-Programmation & Développement : Marc-Olivier Méhu
Soutien technique & logistique : Manuel Goepfert

Contact : metmap@orbifly.com




SOURCES & CREDITS :

   NOAA